createdAt,value
2023-05-20T00:00:08.144Z,5.90
2023-05-20T00:02:35.862Z,6.20
2023-05-20T00:05:03.103Z,5.50
2023-05-20T00:07:30.353Z,6.00
2023-05-20T00:09:57.302Z,5.80
2023-05-20T00:12:24.293Z,5.80
2023-05-20T00:14:51.602Z,6.50
2023-05-20T00:17:19.212Z,5.80
2023-05-20T00:19:46.456Z,5.60
2023-05-20T00:22:13.325Z,6.00
2023-05-20T00:24:40.257Z,5.40
2023-05-20T00:27:07.323Z,5.50
2023-05-20T00:29:34.264Z,5.70
2023-05-20T00:32:01.275Z,5.90
2023-05-20T00:34:28.201Z,5.60
2023-05-20T00:36:55.703Z,6.40
2023-05-20T00:39:22.910Z,6.00
2023-05-20T00:41:49.810Z,6.00
2023-05-20T00:44:18.788Z,5.70
2023-05-20T00:46:46.694Z,5.80
2023-05-20T00:49:14.203Z,6.20
2023-05-20T00:51:41.158Z,5.90
2023-05-20T00:54:08.202Z,5.80
2023-05-20T00:56:35.273Z,6.50
2023-05-20T00:59:02.141Z,6.20
2023-05-20T01:01:29.385Z,5.90
2023-05-20T01:03:56.989Z,6.00
2023-05-20T01:06:26.148Z,6.40
2023-05-20T01:08:53.504Z,6.60
2023-05-20T01:11:33.856Z,6.20
2023-05-20T01:14:06.651Z,6.40
2023-05-20T01:16:36.023Z,6.80
2023-05-20T01:19:04.048Z,6.80
2023-05-20T01:21:32.413Z,6.80
2023-05-20T01:23:59.346Z,7.50
2023-05-20T01:26:27.360Z,7.10
2023-05-20T01:28:54.529Z,7.20
2023-05-20T01:31:26.569Z,7.00
2023-05-20T01:33:56.220Z,7.20
2023-05-20T01:36:23.165Z,7.20
2023-05-20T01:38:50.123Z,7.50
2023-05-20T01:41:17.217Z,7.20
2023-05-20T01:43:44.402Z,7.70
2023-05-20T01:46:11.412Z,7.20
2023-05-20T01:48:38.485Z,7.20
2023-05-20T01:51:06.712Z,7.50
2023-05-20T01:53:34.024Z,7.80
2023-05-20T01:56:01.071Z,8.00
2023-05-20T01:58:28.411Z,7.50
2023-05-20T02:00:55.310Z,7.60
2023-05-20T02:03:22.800Z,7.40
2023-05-20T02:05:49.820Z,7.60
2023-05-20T02:08:18.289Z,7.90
2023-05-20T02:10:48.443Z,7.30
2023-05-20T02:13:15.495Z,7.80
2023-05-20T02:15:42.713Z,7.70
2023-05-20T02:18:09.743Z,8.00
2023-05-20T02:20:37.420Z,8.40
2023-05-20T02:23:08.688Z,7.40
2023-05-20T02:25:37.525Z,7.80
2023-05-20T02:28:06.166Z,8.50
2023-05-20T02:30:33.377Z,7.70
2023-05-20T02:33:04.640Z,7.90
2023-05-20T02:35:32.162Z,7.90
2023-05-20T02:37:59.136Z,7.50
2023-05-20T02:40:26.153Z,7.80
2023-05-20T02:42:54.343Z,8.00
2023-05-20T02:45:21.467Z,8.30
2023-05-20T02:47:48.589Z,7.70
2023-05-20T02:50:15.628Z,7.30
2023-05-20T02:52:42.939Z,7.50
2023-05-20T02:55:10.164Z,7.50
2023-05-20T02:57:38.523Z,7.50
2023-05-20T03:00:13.424Z,7.90
2023-05-20T03:02:41.448Z,7.70
2023-05-20T03:05:08.775Z,7.40
2023-05-20T03:07:36.579Z,8.20
2023-05-20T03:10:06.921Z,7.90
2023-05-20T03:12:33.972Z,7.80
2023-05-20T03:15:01.343Z,8.30
2023-05-20T03:17:29.120Z,7.50
2023-05-20T03:19:57.028Z,7.60
2023-05-20T03:22:24.105Z,7.90
2023-05-20T03:24:52.905Z,7.90
2023-05-20T03:27:22.049Z,8.60
2023-05-20T03:29:49.033Z,8.00
2023-05-20T03:32:17.229Z,8.40
2023-05-20T03:34:44.265Z,8.40
2023-05-20T03:37:11.275Z,8.20
2023-05-20T03:39:38.311Z,8.80
2023-05-20T03:42:05.674Z,8.90
2023-05-20T03:44:32.813Z,9.00
2023-05-20T03:46:59.796Z,9.00
2023-05-20T03:49:26.906Z,8.40
2023-05-20T03:51:54.003Z,8.40
2023-05-20T03:54:21.076Z,8.50
2023-05-20T03:56:49.703Z,8.90
2023-05-20T03:59:16.643Z,8.40
2023-05-20T04:01:43.585Z,8.60
2023-05-20T04:04:11.013Z,8.40
2023-05-20T04:06:38.367Z,8.60
2023-05-20T04:09:06.101Z,8.40
2023-05-20T04:11:34.597Z,9.00
2023-05-20T04:14:01.581Z,8.00
2023-05-20T04:16:32.301Z,8.90
2023-05-20T04:19:00.033Z,8.80
2023-05-20T04:21:27.455Z,8.50
2023-05-20T04:23:54.652Z,8.80
2023-05-20T04:26:21.708Z,8.10
2023-05-20T04:28:51.208Z,8.30
2023-05-20T04:31:18.812Z,8.90
2023-05-20T04:33:46.849Z,7.50
2023-05-20T04:36:16.630Z,8.20
2023-05-20T04:38:44.815Z,7.90
2023-05-20T04:41:11.811Z,8.60
2023-05-20T04:43:40.357Z,8.40
2023-05-20T04:46:07.781Z,8.00
2023-05-20T04:48:35.419Z,7.50
2023-05-20T04:51:03.209Z,8.20
2023-05-20T04:53:34.014Z,7.00
2023-05-20T04:56:01.391Z,7.40
2023-05-20T04:58:29.754Z,6.90
2023-05-20T05:00:56.787Z,8.00
2023-05-20T05:03:24.154Z,7.30
2023-05-20T05:05:51.645Z,6.90
2023-05-20T05:08:19.252Z,7.00
2023-05-20T05:10:49.809Z,6.30
2023-05-20T05:13:16.913Z,6.80
2023-05-20T05:15:44.012Z,7.00
2023-05-20T05:18:11.991Z,6.90
2023-05-20T05:20:39.153Z,6.40
2023-05-20T05:23:07.245Z,6.60
2023-05-20T05:25:34.609Z,5.80
2023-05-20T05:28:02.049Z,5.80
2023-05-20T05:30:29.067Z,6.10
2023-05-20T05:32:56.433Z,6.40
2023-05-20T05:35:23.618Z,6.00
2023-05-20T05:37:50.768Z,5.80
2023-05-20T05:40:17.835Z,5.80
2023-05-20T05:42:45.236Z,5.30
2023-05-20T05:45:12.284Z,5.60
2023-05-20T05:47:39.568Z,5.50
2023-05-20T05:50:06.903Z,5.20
2023-05-20T05:52:34.535Z,4.60
2023-05-20T05:55:02.599Z,5.00
2023-05-20T05:57:30.808Z,5.40
2023-05-20T05:59:58.441Z,4.90
2023-05-20T06:02:25.539Z,5.30
2023-05-20T06:04:53.954Z,5.50
2023-05-20T06:07:23.353Z,5.40
2023-05-20T06:09:51.405Z,5.60
2023-05-20T06:12:18.432Z,5.10
2023-05-20T06:14:45.591Z,5.40
2023-05-20T06:17:13.070Z,5.30
2023-05-20T06:19:41.704Z,5.40
2023-05-20T06:22:09.157Z,5.30
2023-05-20T06:24:36.606Z,4.60
2023-05-20T06:27:03.673Z,5.10
2023-05-20T06:29:31.280Z,4.80
2023-05-20T06:31:58.398Z,4.90
2023-05-20T06:34:25.967Z,4.70
2023-05-20T06:36:53.501Z,4.70
2023-05-20T06:39:20.881Z,4.50
2023-05-20T06:41:48.004Z,4.80
2023-05-20T06:44:27.114Z,4.70
2023-05-20T06:47:15.762Z,4.30
2023-05-20T06:49:45.054Z,4.90
2023-05-20T06:52:14.215Z,5.30
2023-05-20T06:54:42.128Z,4.30
2023-05-20T06:57:10.999Z,4.50
2023-05-20T06:59:38.305Z,4.70
2023-05-20T07:02:06.566Z,4.80
2023-05-20T07:04:33.858Z,4.90
2023-05-20T07:07:01.000Z,5.20
2023-05-20T07:09:28.236Z,4.20
2023-05-20T07:11:55.625Z,4.40
2023-05-20T07:14:22.585Z,4.70
2023-05-20T07:16:50.024Z,4.50
2023-05-20T07:19:16.980Z,4.70
2023-05-20T07:21:44.096Z,4.60
2023-05-20T07:24:25.025Z,4.40
2023-05-20T07:26:51.987Z,4.20
2023-05-20T07:29:19.230Z,4.00
2023-05-20T07:31:46.606Z,4.40
2023-05-20T07:34:13.756Z,4.40
2023-05-20T07:36:41.086Z,4.40
2023-05-20T07:39:13.448Z,4.10
2023-05-20T07:41:42.162Z,4.20
2023-05-20T07:44:09.223Z,4.40
2023-05-20T07:46:39.018Z,4.10
2023-05-20T07:49:06.855Z,3.70
2023-05-20T07:51:34.897Z,4.20
2023-05-20T07:54:02.021Z,3.40
2023-05-20T07:56:29.266Z,3.80
2023-05-20T07:58:58.572Z,3.80
2023-05-20T08:01:28.522Z,3.40
2023-05-20T08:03:56.189Z,5.60
2023-05-20T08:06:28.733Z,4.30
2023-05-20T08:11:28.588Z,4.20
2023-05-20T08:13:56.617Z,4.10
2023-05-20T08:16:24.170Z,4.40
2023-05-20T08:18:51.254Z,3.90
2023-05-20T08:21:20.076Z,3.60
2023-05-20T08:23:47.077Z,3.40
2023-05-20T08:26:14.246Z,3.20
2023-05-20T08:28:42.205Z,3.60
2023-05-20T08:31:09.847Z,3.30
2023-05-20T08:33:37.388Z,3.50
2023-05-20T08:36:04.644Z,4.00
2023-05-20T08:38:31.870Z,5.10
2023-05-20T08:40:58.920Z,3.70
2023-05-20T08:43:26.783Z,3.60
2023-05-20T08:45:54.982Z,3.20
2023-05-20T08:48:26.060Z,4.20
2023-05-20T08:50:53.320Z,4.30
2023-05-20T08:53:20.721Z,4.90
2023-05-20T08:55:52.844Z,7.90
2023-05-20T08:58:20.057Z,3.60
2023-05-20T09:00:47.080Z,6.40
2023-05-20T09:03:14.291Z,4.20
2023-05-20T09:05:41.601Z,3.90
2023-05-20T09:08:10.240Z,3.90
2023-05-20T09:10:38.694Z,3.90
2023-05-20T09:13:06.878Z,3.90
2023-05-20T09:15:34.841Z,4.60
2023-05-20T09:18:06.522Z,4.70
2023-05-20T09:20:37.713Z,3.70
2023-05-20T09:23:05.897Z,3.70
2023-05-20T09:25:34.238Z,4.00
2023-05-20T09:28:01.426Z,4.40
2023-05-20T09:30:28.431Z,5.20
2023-05-20T09:32:56.249Z,4.10
2023-05-20T09:35:27.207Z,4.80
2023-05-20T09:37:56.559Z,4.20
2023-05-20T09:40:25.397Z,4.10
2023-05-20T09:43:05.166Z,4.30
2023-05-20T09:45:32.391Z,3.90
2023-05-20T09:48:00.148Z,4.10
2023-05-20T09:50:27.329Z,3.90
2023-05-20T09:52:54.731Z,3.70
2023-05-20T09:55:24.359Z,3.60
2023-05-20T09:57:51.955Z,3.80
2023-05-20T10:00:19.780Z,3.60
2023-05-20T10:02:48.933Z,4.10
2023-05-20T10:05:38.850Z,3.30
2023-05-20T10:08:19.164Z,4.40
2023-05-20T10:10:59.227Z,3.40
2023-05-20T10:13:35.549Z,3.60
2023-05-20T10:16:10.030Z,4.10
2023-05-20T10:19:01.107Z,3.40
2023-05-20T10:21:28.086Z,4.00
2023-05-20T10:23:55.117Z,3.70
2023-05-20T10:26:22.484Z,3.40
2023-05-20T10:28:49.509Z,3.70
2023-05-20T10:31:17.855Z,3.50
2023-05-20T10:33:46.009Z,3.80
2023-05-20T10:36:24.358Z,3.30
2023-05-20T10:39:10.098Z,4.00
2023-05-20T10:41:37.483Z,3.60
2023-05-20T10:44:05.964Z,3.30
2023-05-20T10:46:46.289Z,3.40
2023-05-20T10:50:59.975Z,3.50
2023-05-20T10:53:34.147Z,3.80
2023-05-20T10:56:02.003Z,3.40
2023-05-20T10:58:37.516Z,3.70
2023-05-20T11:01:04.776Z,3.60
2023-05-20T11:03:32.711Z,3.80
2023-05-20T11:06:00.099Z,5.40
2023-05-20T11:08:33.155Z,4.90
2023-05-20T11:11:00.325Z,4.40
2023-05-20T11:13:27.972Z,4.20
2023-05-20T11:15:55.674Z,3.90
2023-05-20T11:18:23.065Z,3.60
2023-05-20T11:20:50.265Z,3.70
2023-05-20T11:23:17.502Z,3.30
2023-05-20T11:25:44.410Z,3.70
2023-05-20T11:28:14.879Z,4.30
2023-05-20T11:30:44.728Z,3.80
2023-05-20T11:33:12.684Z,4.00
2023-05-20T11:35:48.014Z,3.80
2023-05-20T11:38:15.177Z,3.40
2023-05-20T11:40:51.258Z,3.80
2023-05-20T11:43:18.996Z,4.10
2023-05-20T11:45:48.089Z,3.40
2023-05-20T11:48:15.847Z,3.80
2023-05-20T11:50:43.430Z,4.10
2023-05-20T11:53:15.193Z,3.80
2023-05-20T11:55:58.395Z,3.50
2023-05-20T11:58:30.884Z,3.70
2023-05-20T12:01:05.719Z,3.70
2023-05-20T12:03:41.284Z,3.80
2023-05-20T12:06:08.360Z,4.30
2023-05-20T12:08:35.320Z,3.50
2023-05-20T12:11:02.561Z,3.90
2023-05-20T12:13:30.131Z,4.10
2023-05-20T12:15:57.154Z,4.10
2023-05-20T12:18:24.342Z,4.50
2023-05-20T12:20:51.492Z,3.40
2023-05-20T12:23:18.472Z,3.40
2023-05-20T12:25:47.450Z,4.10
2023-05-20T12:28:14.843Z,3.30
2023-05-20T12:30:41.851Z,3.90
2023-05-20T12:33:09.476Z,3.40
2023-05-20T12:35:38.135Z,3.70
2023-05-20T12:38:05.189Z,3.20
2023-05-20T12:40:32.325Z,4.30
2023-05-20T12:43:03.990Z,3.80
2023-05-20T12:45:32.801Z,4.00
2023-05-20T12:48:00.431Z,3.70
2023-05-20T12:50:27.526Z,3.70
2023-05-20T12:52:54.487Z,3.70
2023-05-20T12:55:21.481Z,3.80
2023-05-20T12:57:48.430Z,3.40
2023-05-20T13:00:16.086Z,3.80
2023-05-20T13:02:43.557Z,3.50
2023-05-20T13:05:10.783Z,3.90
2023-05-20T13:07:37.936Z,3.60
2023-05-20T13:10:05.845Z,3.80
2023-05-20T13:12:36.409Z,3.40
2023-05-20T13:15:04.446Z,4.20
2023-05-20T13:17:32.131Z,3.30
2023-05-20T13:19:59.472Z,3.70
2023-05-20T13:22:26.488Z,3.40
2023-05-20T13:24:53.534Z,3.40
2023-05-20T13:27:20.695Z,3.40
2023-05-20T13:29:47.625Z,3.40
2023-05-20T13:32:14.744Z,3.20
2023-05-20T13:34:41.951Z,3.00
2023-05-20T13:37:08.966Z,3.10
2023-05-20T13:39:36.618Z,3.00
2023-05-20T13:42:04.464Z,3.40
2023-05-20T13:44:33.394Z,3.20
2023-05-20T13:47:00.450Z,2.80
2023-05-20T13:49:28.419Z,3.00
2023-05-20T13:51:55.491Z,3.20
2023-05-20T13:54:22.430Z,2.50
2023-05-20T13:56:49.733Z,3.30
2023-05-20T13:59:16.777Z,2.70
2023-05-20T14:01:45.535Z,3.00
2023-05-20T14:04:12.853Z,2.80
2023-05-20T14:06:39.989Z,2.50
2023-05-20T14:09:07.212Z,3.20
2023-05-20T14:11:34.241Z,3.40
2023-05-20T14:14:01.355Z,2.80
2023-05-20T14:16:28.351Z,3.10
2023-05-20T14:18:55.459Z,2.80
2023-05-20T14:21:22.485Z,3.10
2023-05-20T14:23:49.759Z,2.90
2023-05-20T14:26:16.652Z,2.70
2023-05-20T14:28:45.105Z,2.90
2023-05-20T14:31:12.471Z,3.40
2023-05-20T14:33:39.418Z,4.50
2023-05-20T14:36:06.586Z,3.50
2023-05-20T14:38:34.370Z,3.00
2023-05-20T14:41:01.506Z,2.80
2023-05-20T14:43:28.723Z,3.40
2023-05-20T14:45:55.821Z,3.10
2023-05-20T14:48:22.766Z,2.90
2023-05-20T14:50:50.213Z,2.90
2023-05-20T14:53:17.979Z,2.90
2023-05-20T14:55:45.017Z,4.00
2023-05-20T14:58:12.013Z,2.70
2023-05-20T15:00:39.207Z,2.50
2023-05-20T15:03:06.546Z,2.90
2023-05-20T15:05:33.898Z,2.70
2023-05-20T15:08:01.127Z,3.00
2023-05-20T15:10:28.064Z,2.70
2023-05-20T15:12:55.351Z,2.70
2023-05-20T15:15:22.507Z,2.90
2023-05-20T15:17:49.465Z,2.60
2023-05-20T15:20:17.238Z,3.70
2023-05-20T15:22:47.994Z,2.70
2023-05-20T15:25:15.246Z,2.80
2023-05-20T15:27:42.465Z,3.30
2023-05-20T15:30:09.968Z,2.90
2023-05-20T15:32:37.680Z,2.90
2023-05-20T15:35:05.329Z,3.00
2023-05-20T15:37:32.483Z,3.00
2023-05-20T15:39:59.422Z,2.80
2023-05-20T15:42:27.032Z,2.60
2023-05-20T15:44:53.952Z,2.50
2023-05-20T15:47:21.475Z,2.60
2023-05-20T15:49:48.583Z,2.80
2023-05-20T15:52:15.822Z,3.00
2023-05-20T15:54:42.747Z,2.90
2023-05-20T15:57:10.211Z,2.90
2023-05-20T15:59:37.260Z,3.30
2023-05-20T16:02:04.315Z,3.00
2023-05-20T16:04:32.760Z,3.00
2023-05-20T16:06:59.760Z,4.60
2023-05-20T16:09:26.718Z,3.00
2023-05-20T16:11:53.723Z,3.00
2023-05-20T16:14:20.671Z,2.60
2023-05-20T16:16:47.672Z,2.70
2023-05-20T16:19:15.305Z,3.20
2023-05-20T16:21:42.275Z,3.60
2023-05-20T16:24:09.164Z,3.70
2023-05-20T16:26:36.235Z,4.30
2023-05-20T16:29:03.279Z,2.90
2023-05-20T16:31:30.605Z,3.40
2023-05-20T16:33:57.735Z,2.40
2023-05-20T16:36:24.964Z,3.10
2023-05-20T16:38:51.832Z,3.20
2023-05-20T16:41:19.116Z,3.30
2023-05-20T16:43:46.001Z,2.80
2023-05-20T16:46:14.795Z,3.50
2023-05-20T16:48:42.693Z,2.70
2023-05-20T16:51:09.696Z,2.90
2023-05-20T16:53:37.539Z,2.60
2023-05-20T16:56:06.215Z,2.80
2023-05-20T16:58:33.145Z,2.70
2023-05-20T17:01:00.138Z,3.60
2023-05-20T17:03:27.196Z,3.50
2023-05-20T17:05:54.408Z,4.70
2023-05-20T17:08:21.813Z,4.40
2023-05-20T17:10:51.261Z,3.00
2023-05-20T17:13:19.415Z,3.80
2023-05-20T17:15:46.356Z,3.10
2023-05-20T17:18:13.380Z,2.80
2023-05-20T17:20:40.572Z,3.10
2023-05-20T17:23:07.505Z,2.80
2023-05-20T17:25:34.380Z,3.10
2023-05-20T17:28:01.406Z,3.20
2023-05-20T17:30:28.668Z,2.80
2023-05-20T17:32:57.574Z,2.80
2023-05-20T17:35:25.965Z,3.90
2023-05-20T17:37:53.647Z,3.00
2023-05-20T17:40:21.466Z,6.40
2023-05-20T17:42:48.529Z,3.80
2023-05-20T17:45:15.533Z,6.20
2023-05-20T17:47:42.498Z,3.60
2023-05-20T17:50:10.554Z,3.20
2023-05-20T17:52:38.163Z,3.40
2023-05-20T17:55:06.756Z,3.10
2023-05-20T17:57:34.209Z,3.10
2023-05-20T18:00:01.118Z,2.40
2023-05-20T18:02:28.142Z,4.00
2023-05-20T18:04:55.123Z,2.90
2023-05-20T18:07:22.478Z,3.00
2023-05-20T18:09:49.540Z,3.20
2023-05-20T18:12:16.547Z,2.80
2023-05-20T18:14:43.529Z,2.80
2023-05-20T18:17:10.641Z,3.40
2023-05-20T18:19:37.709Z,3.00
2023-05-20T18:22:07.317Z,2.60
2023-05-20T18:24:34.410Z,2.60
2023-05-20T18:27:01.403Z,2.60
2023-05-20T18:29:28.337Z,2.70
2023-05-20T18:31:55.804Z,2.90
2023-05-20T18:34:22.909Z,3.50
2023-05-20T18:36:49.911Z,3.30
2023-05-20T18:39:20.633Z,3.00
2023-05-20T18:41:48.167Z,6.40
2023-05-20T18:44:18.872Z,2.90
2023-05-20T18:46:46.265Z,3.00
2023-05-20T18:49:13.371Z,4.40
2023-05-20T18:51:40.856Z,3.00
2023-05-20T18:54:08.025Z,2.70
2023-05-20T18:56:35.811Z,2.60
2023-05-20T18:59:02.826Z,4.30
2023-05-20T19:01:30.208Z,2.30
2023-05-20T19:03:58.215Z,2.30
2023-05-20T19:06:25.293Z,2.60
2023-05-20T19:08:52.246Z,4.70
2023-05-20T19:11:19.441Z,10.30
2023-05-20T19:13:46.571Z,2.60
2023-05-20T19:16:14.007Z,2.40
2023-05-20T19:18:41.114Z,2.30
2023-05-20T19:21:08.387Z,6.30
2023-05-20T19:23:35.976Z,2.50
2023-05-20T19:26:03.053Z,2.60
2023-05-20T19:28:30.585Z,2.30
2023-05-20T19:30:58.017Z,2.30
2023-05-20T19:33:25.569Z,2.40
2023-05-20T19:35:52.509Z,2.60
2023-05-20T19:38:19.490Z,2.40
2023-05-20T19:40:47.860Z,2.70
2023-05-20T19:43:15.199Z,3.70
2023-05-20T19:45:42.385Z,2.60
2023-05-20T19:48:09.472Z,2.30
2023-05-20T19:50:36.565Z,2.40
2023-05-20T19:53:06.491Z,2.60
2023-05-20T19:55:35.292Z,6.00
2023-05-20T19:58:05.256Z,5.60
2023-05-20T20:00:32.431Z,3.20
2023-05-20T20:02:59.655Z,2.80
2023-05-20T20:05:27.031Z,2.20
2023-05-20T20:07:54.264Z,2.40
2023-05-20T20:10:21.307Z,4.40
2023-05-20T20:12:48.844Z,5.10
2023-05-20T20:15:16.951Z,3.10
2023-05-20T20:17:52.012Z,3.40
2023-05-20T20:20:19.440Z,3.20
2023-05-20T20:22:46.592Z,3.60
2023-05-20T20:25:14.087Z,2.50
2023-05-20T20:27:44.215Z,3.10
2023-05-20T20:30:13.065Z,5.00
2023-05-20T20:32:40.790Z,3.20
2023-05-20T20:35:08.327Z,2.90
2023-05-20T20:37:36.155Z,2.10
2023-05-20T20:40:04.176Z,4.60
2023-05-20T20:42:32.437Z,2.90
2023-05-20T20:44:59.458Z,2.70
2023-05-20T20:47:29.328Z,2.50
2023-05-20T20:49:56.677Z,2.80
2023-05-20T20:52:23.605Z,2.60
2023-05-20T20:54:50.483Z,1.80
2023-05-20T20:57:20.129Z,6.30
2023-05-20T20:59:48.320Z,2.00
2023-05-20T21:02:15.921Z,1.50
2023-05-20T21:04:43.670Z,3.10
2023-05-20T21:07:12.099Z,3.30
2023-05-20T21:09:40.348Z,3.90
2023-05-20T21:12:07.672Z,2.40
2023-05-20T21:14:36.676Z,2.30
2023-05-20T21:17:03.946Z,1.30
2023-05-20T21:19:31.490Z,2.70
2023-05-20T21:21:58.513Z,1.80
2023-05-20T21:24:25.436Z,1.90
2023-05-20T21:26:52.430Z,5.90
2023-05-20T21:29:19.527Z,1.90
2023-05-20T21:31:46.480Z,1.30
2023-05-20T21:34:13.398Z,1.20
2023-05-20T21:36:40.495Z,1.40
2023-05-20T21:39:07.521Z,1.60
2023-05-20T21:41:35.298Z,2.60
2023-05-20T21:44:02.261Z,1.70
2023-05-20T21:46:29.536Z,1.50
2023-05-20T21:48:56.861Z,1.40
2023-05-20T21:51:23.958Z,1.00
2023-05-20T21:53:50.824Z,1.30
2023-05-20T21:56:18.243Z,1.20
2023-05-20T21:58:45.150Z,11.30
2023-05-20T22:01:12.119Z,3.00
2023-05-20T22:03:40.226Z,1.90
2023-05-20T22:06:07.355Z,1.10
2023-05-20T22:08:34.214Z,1.40
2023-05-20T22:11:05.519Z,1.00
2023-05-20T22:13:33.222Z,1.00
2023-05-20T22:16:01.533Z,1.00
2023-05-20T22:18:29.269Z,1.20
2023-05-20T22:20:59.302Z,1.10
2023-05-20T22:23:26.892Z,0.90
2023-05-20T22:25:55.018Z,1.20
2023-05-20T22:28:21.929Z,0.90
2023-05-20T22:30:48.798Z,0.70
2023-05-20T22:33:15.801Z,1.00
2023-05-20T22:35:42.759Z,1.00
2023-05-20T22:38:09.651Z,0.80
2023-05-20T22:40:36.585Z,0.90
2023-05-20T22:43:03.489Z,0.80
2023-05-20T22:45:30.690Z,0.70
2023-05-20T22:47:57.730Z,0.90
2023-05-20T22:50:26.408Z,0.90
2023-05-20T22:52:53.476Z,1.10
2023-05-20T22:55:20.723Z,1.00
2023-05-20T22:57:48.317Z,0.90
2023-05-20T23:00:15.555Z,0.90
2023-05-20T23:02:42.745Z,1.10
2023-05-20T23:07:47.423Z,0.90
2023-05-20T23:10:14.510Z,0.80
2023-05-20T23:12:41.735Z,0.90
2023-05-20T23:15:10.090Z,0.90
2023-05-20T23:17:39.808Z,1.20
2023-05-20T23:20:11.056Z,0.90
2023-05-20T23:22:39.320Z,1.00
2023-05-20T23:25:07.376Z,1.00
2023-05-20T23:27:34.528Z,1.00
2023-05-20T23:30:01.779Z,0.70
2023-05-20T23:32:30.489Z,0.80
2023-05-20T23:34:57.715Z,0.90
2023-05-20T23:37:25.306Z,1.00
2023-05-20T23:39:52.553Z,0.80
2023-05-20T23:42:19.722Z,1.10
2023-05-20T23:44:47.498Z,1.00
2023-05-20T23:47:14.792Z,1.10
2023-05-20T23:49:41.958Z,1.30
2023-05-20T23:52:09.003Z,1.30
2023-05-20T23:54:36.576Z,1.50
2023-05-20T23:57:04.370Z,1.30
2023-05-20T23:59:31.576Z,1.30
